Portada
METAR-TAF:

METAR-TAF

Aeroports :

Talara, Perú

latitud: 04-34S, longitud: 081-15W, altitud: 85 m

Observació

L'informe es va fer fa 10 hores i 56 minuts, a les 20:00 UTC
Vent 17 kt del Sud
Temperatura 26°C
Humitat 61%
Pressió 1011 hPa
Visibilitat 10 km o més
sense núvols per sota de 1500 mi sense presència de cumulonimbus.

METAR: SPYL 072000Z 18017KT CAVOK 26/18 Q1011 RMK BIRD HAZARD RWY 17/35 PP000

Hora: 01:56 (06:56 UTC)

Pronòstic

L'informe es va fer fa 13 hores i 56 minuts, a les 17:00 UTC
Pronòstic vàlid del 07 a les 18 UTC al 08 a les 18 UTC
Vent 15 kt del Sud
Visibilitat 10 km o més
Núvols disperses a una alçada de 5000 ft
Evolucionant progressivament
l' 08 a les 07 UTC al 08 a les 10 UTC
Vent 18 kt del Sud-Est

TAF: SPYL 071700Z 0718/0818 19015KT 9999 SCT050 TX28/0719Z TN19/0811Z BECMG 0807/0810 14018KT

Observacions i pronòstics meteorològics de més de 4000 aeroports (METAR i TAF).

Les estacions disponibles són els punts grocs i vermells al mapa.

Posi el ratolí al punt desitjat per veure el nom de l'estació.

Feu clic per veure les observacions i els pronòstics meteorològics.

Per canviar el mapa: feu clic els botons verds amb una creu de color negre per apropar; al botó verd amb un guió per allunyar la imatge; o en les fletxes verdes per a mapes adjacents.


METAR-TAF: